Aeroporto :
LOGIN :

Iscrizione | Disclaimer

   EN    FR    IT 

 










Sommario :    VFR   VFR Marginale   IFR   IFR Intensivo   IFR Molto Intensivo
Visibilità : 
Base nubi : 
>= 8 km
>= 3000ft
5 / 8 km
1000 / 3000 ft
1500m / 5 km
500 / 1000 ft
800 / 1500m
200 / 500 ft
< 800m
< 200 ft
Simboli :   Temporali  Nebbia  Neve Forte  Precipitazioni Forti  Vento > 20 kt
SIGMETs :   Varie  Temporali  Ghiacco  Turbolenza  Onda orograficha  Ceneri Vulcaniche







- Altitudine del aeroporto : 157 ft
- Codice IATA : LIL
- Carte del aeroporto


LFQQ - Lille Lesquin

ULTIMO METAR :
  • 180630Z AUTO 04004KT 360V070 CAVOK 18/10 Q1015 NOSIG

METARs OBSOLETI :
  • 180600Z AUTO 04004KT CAVOK 17/11 Q1015 NOSIG
  • 180530Z AUTO VRB02KT CAVOK 16/10 Q1015 NOSIG
  • 180500Z AUTO 08002KT CAVOK 15/11 Q1015 NOSIG
  • 180430Z AUTO VRB02KT CAVOK 14/11 Q1016 NOSIG
  • 180400Z AUTO 02003KT CAVOK 14/11 Q1015 NOSIG

TAF TAF LFQQ
Valido dal 18 a 06 ore il 19 a 12 ore UTC


180500Z 1806/1912 02005KT CAVOK
PROB30
TEMPO 1816/1820 VRB15G25KT 4000 TSRA BKN060CB
PROB30
TEMPO 1903/1906 VRB20G30KT 2000 TSRA BKN080CB
ATIS : +33 3 20 16 19 54
Nessun NOTAM noto per questo aeroporto.



MetMap, La meteo Aeronautica in un colpo d'occhio ! - Copyright ORBIFLY Dicembre 2007 - Disclaimer

ORBIFLY MET'MAP TEAM :

Programmazione e sviluppo : Alexandra Zaïnal
Concezione e sviluppo : Baudouin d'Aumeries
Co-Programmazione e sviluppo : Marc-Olivier Méhu
Supporto tecnico e logistico : Manuel Goepfert
Aiuto per la traduzione : Arnaldo La Scala

Contatto : metmap@orbifly.com




FONTI E CREDITI :

   NOAA